Time;durP1;ratioP1;P1;durP2;ratioP2;P2;SDS_P1;SDS_P2;PMS_P1;PMS_P2;Temp;Humidity;BMP_temperature;BMP_pressure;BME280_temperature;BME280_humidity;BME280_pressure;Samples;Min_cycle;Max_cycle;Signal;HPM_P1;HPM_P2
2023/05/31 00:02:58;;;;;;;12.80;9.32;;;;;;;;;;9521120;30;20056;-65
2023/05/31 00:07:51;;;;;;;12.43;8.82;;;;;;;;;;9505071;30;20060;-65
2023/05/31 00:12:44;;;;;;;11.50;8.60;;;;;;;;;;9506747;30;20048;-65
2023/05/31 00:17:38;;;;;;;14.95;9.88;;;;;;;;;;9506014;30;20417;-65
2023/05/31 00:22:34;;;;;;;12.68;9.73;;;;;;;;;;9503995;30;20110;-65
2023/05/31 00:27:28;;;;;;;16.63;11.38;;;;;;;;;;9503635;30;20568;-65
2023/05/31 00:32:21;;;;;;;17.27;11.95;;;;;;;;;;9501420;30;20056;-65
2023/05/31 00:37:14;;;;;;;16.88;11.73;;;;;;;;;;9506105;30;20160;-66
2023/05/31 00:42:09;;;;;;;16.63;11.73;;;;;;;;;;9483227;30;20157;-65
2023/05/31 00:47:03;;;;;;;20.00;11.57;;;;;;;;;;9505647;30;20163;-65
2023/05/31 00:51:56;;;;;;;17.92;11.57;;;;;;;;;;9487948;30;20056;-65
2023/05/31 00:56:49;;;;;;;16.00;12.23;;;;;;;;;;9494891;29;20056;-65
2023/05/31 01:01:41;;;;;;;13.38;10.82;;;;;;;;;;9502188;30;20055;-66
2023/05/31 01:06:40;;;;;;;15.57;12.20;;;;;;;;;;9495298;30;20056;-65
2023/05/31 01:11:49;;;;;;;21.50;10.85;;;;;;;;;;9501506;30;20068;-65
2023/05/31 01:17:01;;;;;;;16.38;11.85;;;;;;;;;;9495648;30;20056;-66
2023/05/31 01:22:50;;;;;;;26.48;13.27;;;;;;;;;;9487453;30;20059;-66
2023/05/31 01:28:02;;;;;;;17.30;11.35;;;;;;;;;;9406910;30;20139;-65
2023/05/31 01:33:00;;;;;;;19.10;11.20;;;;;;;;;;9501410;30;20060;-66
2023/05/31 01:37:54;;;;;;;17.10;11.13;;;;;;;;;;9496643;30;20501;-66
2023/05/31 01:42:47;;;;;;;15.10;12.27;;;;;;;;;;9470855;30;20090;-66
2023/05/31 01:47:41;;;;;;;17.15;11.43;;;;;;;;;;9501802;30;20467;-66
2023/05/31 01:52:34;;;;;;;16.98;12.00;;;;;;;;;;9491255;30;20432;-66
2023/05/31 01:57:31;;;;;;;20.73;11.13;;;;;;;;;;9489260;30;20474;-66
2023/05/31 02:02:25;;;;;;;25.58;8.88;;;;;;;;;;9490119;30;20066;-66
2023/05/31 02:07:21;;;;;;;10.70;6.70;;;;;;;;;;9499638;30;20056;-66
2023/05/31 02:12:14;;;;;;;15.98;7.28;;;;;;;;;;9501732;30;20072;-66
2023/05/31 02:17:06;;;;;;;7.85;6.68;;;;;;;;;;9503139;30;20127;-66
2023/05/31 02:22:00;;;;;;;11.85;6.35;;;;;;;;;;9515259;30;20152;-66
2023/05/31 02:26:53;;;;;;;13.25;6.38;;;;;;;;;;9502135;30;20079;-65
2023/05/31 02:31:49;;;;;;;10.15;6.13;;;;;;;;;;9496926;30;20088;-66
2023/05/31 02:36:46;;;;;;;7.88;6.35;;;;;;;;;;9502316;30;20512;-66
2023/05/31 02:41:39;;;;;;;6.40;5.28;;;;;;;;;;9473803;30;20107;-66
2023/05/31 02:46:32;;;;;;;8.82;4.90;;;;;;;;;;9488506;30;20110;-65
2023/05/31 02:51:26;;;;;;;7.13;5.13;;;;;;;;;;9487991;30;20052;-65
2023/05/31 02:56:28;;;;;;;10.23;5.03;;;;;;;;;;9525575;30;20148;-66
2023/05/31 03:01:42;;;;;;;7.03;4.88;;;;;;;;;;9486989;30;20059;-66
2023/05/31 03:06:55;;;;;;;12.77;5.40;;;;;;;;;;9521752;30;20565;-66
2023/05/31 03:11:49;;;;;;;7.70;5.57;;;;;;;;;;9492575;30;20071;-66
2023/05/31 03:16:46;;;;;;;8.68;6.03;;;;;;;;;;9506131;30;20062;-66
2023/05/31 03:21:41;;;;;;;6.72;5.70;;;;;;;;;;9500269;30;20048;-66
2023/05/31 03:26:35;;;;;;;11.05;5.05;;;;;;;;;;9499614;30;20140;-66
2023/05/31 03:31:29;;;;;;;6.50;4.70;;;;;;;;;;9470531;30;20052;-66
2023/05/31 03:36:23;;;;;;;8.52;4.97;;;;;;;;;;9520108;30;20056;-66
2023/05/31 03:41:17;;;;;;;9.88;5.75;;;;;;;;;;9493728;30;20472;-66
2023/05/31 03:46:10;;;;;;;8.55;5.45;;;;;;;;;;9503861;30;20101;-66
2023/05/31 03:51:02;;;;;;;8.90;5.68;;;;;;;;;;9491337;30;20049;-66
2023/05/31 03:55:55;;;;;;;6.80;4.65;;;;;;;;;;9475795;30;20517;-66
2023/05/31 04:00:49;;;;;;;10.10;5.60;;;;;;;;;;9484880;30;20056;-66
2023/05/31 04:05:43;;;;;;;6.53;4.82;;;;;;;;;;9473287;30;20048;-66
2023/05/31 04:10:36;;;;;;;7.60;5.53;;;;;;;;;;9492150;30;20159;-66
2023/05/31 04:15:30;;;;;;;17.00;5.55;;;;;;;;;;9475064;30;20497;-66
2023/05/31 04:20:27;;;;;;;11.18;6.03;;;;;;;;;;9485792;30;20044;-66
2023/05/31 04:25:20;;;;;;;11.07;6.45;;;;;;;;;;9496117;30;20056;-66
2023/05/31 04:30:14;;;;;;;10.10;5.13;;;;;;;;;;9529764;30;20051;-66
2023/05/31 04:35:08;;;;;;;12.30;5.55;;;;;;;;;;9511105;30;20063;-66
2023/05/31 04:40:09;;;;;;;9.93;6.30;;;;;;;;;;9493565;30;20078;-65
2023/05/31 04:45:04;;;;;;;7.95;5.57;;;;;;;;;;9495156;30;20064;-66
2023/05/31 04:50:04;;;;;;;7.03;5.57;;;;;;;;;;9515722;30;20520;-67
2023/05/31 04:55:01;;;;;;;10.35;5.70;;;;;;;;;;9490701;30;20075;-67
2023/05/31 04:59:56;;;;;;;13.00;7.18;;;;;;;;;;9474771;30;20048;-68
2023/05/31 05:04:50;;;;;;;21.60;8.43;;;;;;;;;;9489998;30;20091;-68
2023/05/31 05:09:44;;;;;;;16.58;9.48;;;;;;;;;;9516387;30;20060;-67
2023/05/31 05:14:37;;;;;;;15.15;9.95;;;;;;;;;;9494843;30;20060;-69
2023/05/31 05:19:31;;;;;;;15.43;10.93;;;;;;;;;;9501140;30;20053;-68
2023/05/31 05:24:26;;;;;;;16.60;11.02;;;;;;;;;;9509110;30;20699;-68
2023/05/31 05:29:19;;;;;;;19.63;11.10;;;;;;;;;;9501059;30;20505;-68
2023/05/31 05:34:13;;;;;;;18.15;10.25;;;;;;;;;;9502518;30;20386;-72
2023/05/31 05:39:07;;;;;;;22.10;14.07;;;;;;;;;;9504594;30;20496;-68
2023/05/31 05:44:02;;;;;;;13.82;9.73;;;;;;;;;;9480440;30;20060;-64
2023/05/31 05:48:56;;;;;;;17.42;9.48;;;;;;;;;;9484536;30;20060;-67
2023/05/31 05:53:50;;;;;;;16.80;9.40;;;;;;;;;;9478563;30;20132;-67
2023/05/31 05:58:43;;;;;;;12.43;8.68;;;;;;;;;;9482740;30;20056;-67
2023/05/31 06:03:55;;;;;;;12.93;6.95;;;;;;;;;;9485239;30;20487;-67
2023/05/31 06:08:49;;;;;;;6.97;6.28;;;;;;;;;;9495122;30;20059;-68
2023/05/31 06:13:45;;;;;;;9.50;7.57;;;;;;;;;;9488914;30;20061;-69
2023/05/31 06:18:41;;;;;;;16.85;8.55;;;;;;;;;;9479016;30;20534;-69
2023/05/31 06:23:36;;;;;;;13.52;7.72;;;;;;;;;;9500090;30;20061;-69
2023/05/31 06:28:30;;;;;;;13.02;6.43;;;;;;;;;;9494660;30;20056;-69
2023/05/31 06:33:29;;;;;;;6.82;5.60;;;;;;;;;;9505740;30;20060;-69
2023/05/31 06:38:22;;;;;;;16.25;6.75;;;;;;;;;;9507784;30;20064;-69
2023/05/31 06:43:15;;;;;;;9.75;6.07;;;;;;;;;;9509676;30;20408;-69
2023/05/31 06:48:28;;;;;;;9.02;5.72;;;;;;;;;;9508712;30;20091;-69
2023/05/31 06:53:39;;;;;;;9.15;6.53;;;;;;;;;;9499160;30;20420;-69
2023/05/31 06:58:41;;;;;;;17.23;10.07;;;;;;;;;;9482179;30;20086;-69
2023/05/31 07:03:34;;;;;;;11.48;7.13;;;;;;;;;;9520740;30;20155;-69
2023/05/31 07:08:27;;;;;;;12.50;7.47;;;;;;;;;;9506117;30;20060;-69
2023/05/31 07:13:40;;;;;;;11.05;7.07;;;;;;;;;;9496603;30;20060;-69
2023/05/31 07:18:33;;;;;;;9.15;7.38;;;;;;;;;;9507811;30;20056;-68
2023/05/31 07:23:27;;;;;;;12.55;7.55;;;;;;;;;;9506113;30;20062;-69
2023/05/31 07:28:21;;;;;;;18.17;8.18;;;;;;;;;;9507412;30;20056;-68
2023/05/31 07:33:14;;;;;;;15.48;8.57;;;;;;;;;;9495321;30;20478;-68
2023/05/31 07:38:21;;;;;;;16.42;8.05;;;;;;;;;;9483276;30;20080;-68
2023/05/31 07:43:15;;;;;;;9.82;7.00;;;;;;;;;;9500956;30;20075;-67
2023/05/31 07:48:09;;;;;;;13.55;7.72;;;;;;;;;;9503333;30;20467;-69
2023/05/31 07:53:03;;;;;;;11.25;7.32;;;;;;;;;;9507675;30;20068;-68
2023/05/31 07:57:56;;;;;;;14.57;7.90;;;;;;;;;;9504971;30;20056;-68
2023/05/31 08:02:50;;;;;;;9.40;7.75;;;;;;;;;;9505238;30;20086;-68
2023/05/31 08:07:44;;;;;;;12.40;6.35;;;;;;;;;;9501999;30;20051;-68
2023/05/31 08:12:39;;;;;;;13.27;6.70;;;;;;;;;;9499045;30;20064;-68
2023/05/31 08:17:33;;;;;;;11.27;6.85;;;;;;;;;;9496964;30;20136;-68
2023/05/31 08:22:27;;;;;;;14.57;8.20;;;;;;;;;;9505515;30;20056;-69
2023/05/31 08:27:21;;;;;;;22.15;7.80;;;;;;;;;;9505961;30;20055;-69
2023/05/31 08:32:14;;;;;;;13.82;7.85;;;;;;;;;;9504266;30;20063;-69
2023/05/31 08:37:08;;;;;;;10.90;7.75;;;;;;;;;;9518673;30;20482;-69
2023/05/31 08:42:14;;;;;;;8.45;6.57;;;;;;;;;;9505250;30;20060;-69
2023/05/31 08:47:36;;;;;;;12.95;7.90;;;;;;;;;;9478636;30;20532;-69
2023/05/31 08:52:31;;;;;;;8.35;6.90;;;;;;;;;;9505374;30;20582;-69
2023/05/31 08:57:26;;;;;;;11.27;6.60;;;;;;;;;;9496575;29;20067;-69
2023/05/31 09:02:21;;;;;;;9.60;5.75;;;;;;;;;;9525665;30;20059;-69
2023/05/31 09:07:14;;;;;;;10.80;7.60;;;;;;;;;;9505852;30;20117;-70
2023/05/31 09:12:08;;;;;;;14.93;6.68;;;;;;;;;;9503873;30;20091;-69
2023/05/31 09:17:01;;;;;;;10.48;6.28;;;;;;;;;;9490335;30;20063;-69
2023/05/31 09:21:55;;;;;;;9.38;6.65;;;;;;;;;;9497812;30;20191;-67
2023/05/31 09:26:49;;;;;;;7.65;6.82;;;;;;;;;;9496101;30;20166;-70
2023/05/31 09:31:44;;;;;;;6.57;5.65;;;;;;;;;;9502234;30;20064;-70
2023/05/31 09:36:38;;;;;;;9.30;6.68;;;;;;;;;;9497361;30;20094;-70
2023/05/31 09:41:33;;;;;;;11.15;6.85;;;;;;;;;;9478973;30;20056;-70
2023/05/31 09:46:27;;;;;;;16.13;6.57;;;;;;;;;;9497379;30;20154;-70
2023/05/31 09:51:21;;;;;;;9.75;6.72;;;;;;;;;;9496889;30;20068;-70
2023/05/31 09:56:18;;;;;;;10.95;5.65;;;;;;;;;;9502298;30;20513;-70
2023/05/31 10:01:12;;;;;;;11.52;5.45;;;;;;;;;;9502975;30;20056;-69
2023/05/31 10:06:05;;;;;;;7.82;5.10;;;;;;;;;;9506338;30;20187;-70
2023/05/31 10:11:00;;;;;;;8.77;5.30;;;;;;;;;;9510328;30;20056;-69
2023/05/31 10:15:56;;;;;;;6.75;5.78;;;;;;;;;;9509463;30;20049;-69
2023/05/31 10:20:52;;;;;;;6.38;4.78;;;;;;;;;;9509568;30;20139;-70
2023/05/31 10:25:52;;;;;;;7.18;4.53;;;;;;;;;;9508298;30;20087;-69
2023/05/31 10:30:47;;;;;;;8.18;4.18;;;;;;;;;;9508546;30;20110;-70
2023/05/31 10:35:40;;;;;;;6.47;4.28;;;;;;;;;;9507931;30;20078;-69
2023/05/31 10:40:53;;;;;;;5.75;4.70;;;;;;;;;;9508552;30;20064;-69
2023/05/31 10:46:05;;;;;;;5.20;4.35;;;;;;;;;;9498657;30;20070;-69
2023/05/31 10:51:00;;;;;;;8.55;4.55;;;;;;;;;;9498251;30;20060;-69
2023/05/31 10:55:53;;;;;;;6.80;4.82;;;;;;;;;;9507553;30;20123;-69
2023/05/31 11:00:48;;;;;;;4.97;4.00;;;;;;;;;;9506424;30;20063;-69
2023/05/31 11:05:59;;;;;;;6.93;4.50;;;;;;;;;;9504467;30;20060;-68
2023/05/31 11:10:53;;;;;;;8.85;3.90;;;;;;;;;;9501746;30;20053;-71
2023/05/31 11:15:47;;;;;;;6.72;4.95;;;;;;;;;;9496357;30;20161;-70
2023/05/31 11:20:39;;;;;;;7.20;4.57;;;;;;;;;;9490374;30;20245;-70
2023/05/31 11:25:34;;;;;;;6.90;3.78;;;;;;;;;;9498322;30;20060;-70
2023/05/31 11:30:35;;;;;;;5.82;3.95;;;;;;;;;;9499013;30;20063;-70
2023/05/31 11:35:31;;;;;;;5.82;4.47;;;;;;;;;;9500063;30;20068;-70
2023/05/31 11:40:24;;;;;;;4.22;3.25;;;;;;;;;;9489194;30;20539;-70
2023/05/31 11:45:20;;;;;;;7.60;4.05;;;;;;;;;;9500043;30;20052;-70
2023/05/31 11:50:17;;;;;;;7.10;3.90;;;;;;;;;;9499910;30;20115;-69
2023/05/31 11:55:10;;;;;;;11.85;4.13;;;;;;;;;;9495301;30;20492;-70
2023/05/31 12:00:11;;;;;;;6.93;3.78;;;;;;;;;;9524698;29;20048;-68
2023/05/31 12:05:04;;;;;;;5.68;4.10;;;;;;;;;;9511686;30;20088;-69
2023/05/31 12:09:58;;;;;;;8.35;4.70;;;;;;;;;;9492205;30;20092;-69
2023/05/31 12:14:54;;;;;;;7.68;4.20;;;;;;;;;;9497210;30;20086;-69
2023/05/31 12:19:47;;;;;;;10.63;4.18;;;;;;;;;;9493982;30;20067;-69
2023/05/31 12:24:55;;;;;;;6.28;3.63;;;;;;;;;;9493533;29;20059;-68
2023/05/31 12:29:48;;;;;;;8.85;3.83;;;;;;;;;;9504757;30;20068;-75
2023/05/31 12:34:42;;;;;;;7.90;3.80;;;;;;;;;;9515010;30;20067;-75
2023/05/31 12:39:36;;;;;;;8.23;4.00;;;;;;;;;;9511572;30;20593;-63
2023/05/31 12:44:31;;;;;;;8.73;3.65;;;;;;;;;;9492529;30;20088;-63
2023/05/31 12:49:30;;;;;;;13.65;4.68;;;;;;;;;;9500258;30;20060;-63
2023/05/31 12:54:28;;;;;;;6.70;3.40;;;;;;;;;;9499984;30;20478;-63
2023/05/31 12:59:22;;;;;;;8.02;3.40;;;;;;;;;;9498809;30;20052;-63
2023/05/31 13:04:16;;;;;;;6.25;4.10;;;;;;;;;;9498785;30;20570;-64
2023/05/31 13:09:08;;;;;;;5.90;3.88;;;;;;;;;;9495204;30;20056;-63
2023/05/31 13:14:08;;;;;;;4.45;3.72;;;;;;;;;;9501487;30;20152;-64
2023/05/31 13:19:02;;;;;;;4.63;3.47;;;;;;;;;;9484917;30;20485;-63
2023/05/31 13:23:56;;;;;;;11.30;3.88;;;;;;;;;;9493999;30;20067;-61
2023/05/31 13:28:50;;;;;;;9.10;3.70;;;;;;;;;;9496435;30;20064;-63
2023/05/31 13:33:46;;;;;;;5.60;3.38;;;;;;;;;;9501138;30;20072;-63
2023/05/31 13:38:42;;;;;;;10.43;3.30;;;;;;;;;;9489700;30;20049;-62
2023/05/31 13:43:37;;;;;;;5.40;3.28;;;;;;;;;;9493286;30;20433;-63
2023/05/31 13:48:30;;;;;;;9.27;3.40;;;;;;;;;;9492718;30;20536;-63
2023/05/31 13:53:23;;;;;;;6.05;3.30;;;;;;;;;;9466389;30;20106;-63
2023/05/31 13:58:18;;;;;;;7.68;3.67;;;;;;;;;;9498454;30;20508;-63
2023/05/31 14:03:11;;;;;;;7.40;4.05;;;;;;;;;;9502142;30;20064;-63
2023/05/31 14:08:06;;;;;;;6.10;3.63;;;;;;;;;;9497645;30;20091;-63
2023/05/31 14:13:00;;;;;;;3.95;3.20;;;;;;;;;;9492755;29;20518;-62
2023/05/31 14:17:54;;;;;;;7.03;3.50;;;;;;;;;;9495132;30;20135;-62
2023/05/31 14:22:47;;;;;;;15.65;3.72;;;;;;;;;;9496329;30;20056;-63
2023/05/31 14:27:40;;;;;;;9.07;4.07;;;;;;;;;;9496753;30;20114;-62
2023/05/31 14:32:33;;;;;;;7.70;3.58;;;;;;;;;;9499435;30;20071;-64
2023/05/31 14:37:27;;;;;;;8.10;4.63;;;;;;;;;;9499820;30;20094;-62
2023/05/31 14:42:31;;;;;;;11.50;3.92;;;;;;;;;;9507272;30;20139;-62
2023/05/31 14:47:25;;;;;;;5.90;3.97;;;;;;;;;;9498996;30;20080;-62
2023/05/31 14:52:19;;;;;;;6.47;3.63;;;;;;;;;;9500747;30;20086;-62
2023/05/31 14:57:13;;;;;;;8.20;3.92;;;;;;;;;;9507594;30;20048;-62
2023/05/31 15:02:08;;;;;;;11.25;4.25;;;;;;;;;;9506634;30;20131;-64
2023/05/31 15:07:02;;;;;;;7.75;3.97;;;;;;;;;;9504561;30;20060;-64
2023/05/31 15:11:55;;;;;;;7.30;3.55;;;;;;;;;;9505707;30;20412;-64
2023/05/31 15:16:48;;;;;;;7.43;4.40;;;;;;;;;;9515948;30;20505;-64
2023/05/31 15:21:41;;;;;;;10.57;3.63;;;;;;;;;;9489126;30;20491;-64
2023/05/31 15:26:35;;;;;;;8.57;3.72;;;;;;;;;;9520300;30;20139;-64
2023/05/31 15:31:28;;;;;;;13.70;3.88;;;;;;;;;;9518732;30;20052;-64
2023/05/31 15:36:23;;;;;;;4.72;3.72;;;;;;;;;;9505179;30;20089;-64
2023/05/31 15:41:17;;;;;;;8.48;3.65;;;;;;;;;;9505346;30;20087;-63
2023/05/31 15:46:11;;;;;;;4.78;4.30;;;;;;;;;;9501915;30;20082;-63
2023/05/31 15:51:05;;;;;;;6.10;4.07;;;;;;;;;;9504553;30;20060;-64
2023/05/31 15:55:58;;;;;;;6.72;3.83;;;;;;;;;;9498047;30;20064;-63
2023/05/31 16:00:55;;;;;;;7.50;3.70;;;;;;;;;;9496261;30;20048;-63
2023/05/31 16:05:47;;;;;;;4.97;3.53;;;;;;;;;;9499267;30;20076;-64
2023/05/31 16:10:40;;;;;;;8.85;4.10;;;;;;;;;;9516763;30;20060;-64
2023/05/31 16:15:34;;;;;;;4.38;3.60;;;;;;;;;;9493930;29;20052;-64
2023/05/31 16:20:28;;;;;;;11.88;4.03;;;;;;;;;;9494304;30;20110;-66
2023/05/31 16:25:20;;;;;;;7.78;4.38;;;;;;;;;;9502347;30;20052;-64
2023/05/31 16:30:14;;;;;;;8.40;4.80;;;;;;;;;;9493783;30;20059;-64
2023/05/31 16:35:08;;;;;;;6.50;4.85;;;;;;;;;;9504832;30;20064;-64
2023/05/31 16:40:09;;;;;;;9.18;4.90;;;;;;;;;;9520974;30;20060;-64
2023/05/31 16:45:03;;;;;;;13.70;3.57;;;;;;;;;;9504183;30;20056;-64
2023/05/31 16:49:57;;;;;;;8.32;3.95;;;;;;;;;;9483684;30;20784;-64
2023/05/31 16:54:51;;;;;;;10.05;4.40;;;;;;;;;;9487976;30;20077;-64
2023/05/31 16:59:45;;;;;;;5.78;4.35;;;;;;;;;;9504024;30;20056;-64
2023/05/31 17:04:39;;;;;;;6.07;4.07;;;;;;;;;;9500002;30;20053;-63
2023/05/31 17:09:32;;;;;;;9.48;4.55;;;;;;;;;;9518378;29;20049;-63
2023/05/31 17:14:26;;;;;;;23.42;5.10;;;;;;;;;;9502479;30;20071;-63
2023/05/31 17:19:19;;;;;;;6.85;4.38;;;;;;;;;;9487310;30;20060;-63
2023/05/31 17:24:13;;;;;;;8.52;4.70;;;;;;;;;;9483690;30;20107;-63
2023/05/31 17:29:06;;;;;;;10.48;5.40;;;;;;;;;;9492920;30;20079;-63
2023/05/31 17:34:01;;;;;;;9.05;4.50;;;;;;;;;;9495206;30;20440;-63
2023/05/31 17:38:54;;;;;;;7.32;4.60;;;;;;;;;;9496933;30;20060;-63
2023/05/31 17:43:48;;;;;;;6.10;4.40;;;;;;;;;;9503151;30;20056;-63
2023/05/31 17:48:42;;;;;;;8.02;4.22;;;;;;;;;;9502032;30;20064;-63
2023/05/31 17:53:35;;;;;;;11.23;4.32;;;;;;;;;;9518842;30;20063;-63
2023/05/31 17:58:29;;;;;;;9.18;5.13;;;;;;;;;;9500829;30;20075;-63
2023/05/31 18:03:23;;;;;;;6.38;4.65;;;;;;;;;;9497528;30;20052;-64
2023/05/31 18:08:17;;;;;;;6.43;4.60;;;;;;;;;;9489981;30;20146;-64
2023/05/31 18:13:10;;;;;;;13.45;4.88;;;;;;;;;;9493972;30;20055;-66
2023/05/31 18:18:03;;;;;;;6.95;4.53;;;;;;;;;;9495195;30;20086;-66
2023/05/31 18:22:57;;;;;;;8.63;4.45;;;;;;;;;;9496125;30;20678;-65
2023/05/31 18:27:52;;;;;;;7.88;5.43;;;;;;;;;;9498160;30;20684;-65
2023/05/31 18:32:47;;;;;;;5.50;4.57;;;;;;;;;;9492257;30;20460;-65
2023/05/31 18:37:39;;;;;;;9.10;4.70;;;;;;;;;;9502087;30;20097;-65
2023/05/31 18:42:33;;;;;;;11.73;4.90;;;;;;;;;;9507499;30;20074;-66
2023/05/31 18:47:26;;;;;;;8.63;4.35;;;;;;;;;;9507542;30;20409;-64
2023/05/31 18:52:20;;;;;;;11.38;5.13;;;;;;;;;;9507051;30;20100;-65
2023/05/31 18:57:15;;;;;;;7.75;4.95;;;;;;;;;;9507458;30;20075;-64
2023/05/31 19:02:10;;;;;;;10.10;4.75;;;;;;;;;;9507307;30;20058;-65
2023/05/31 19:07:06;;;;;;;6.35;4.57;;;;;;;;;;9497656;30;20567;-64
2023/05/31 19:12:02;;;;;;;6.70;4.88;;;;;;;;;;9498361;30;20945;-64
2023/05/31 19:16:56;;;;;;;7.38;4.70;;;;;;;;;;9505314;30;21449;-64
2023/05/31 19:21:50;;;;;;;14.05;5.35;;;;;;;;;;9499349;30;20052;-71
2023/05/31 19:26:45;;;;;;;7.75;4.50;;;;;;;;;;9516759;30;20145;-66
2023/05/31 19:31:41;;;;;;;21.38;5.40;;;;;;;;;;9496416;30;20084;-67
2023/05/31 19:36:35;;;;;;;7.00;5.57;;;;;;;;;;9498858;30;20087;-66
2023/05/31 19:41:29;;;;;;;10.43;4.72;;;;;;;;;;9505180;29;20489;-66
2023/05/31 19:46:24;;;;;;;9.02;4.93;;;;;;;;;;9501002;30;20101;-65
2023/05/31 19:51:19;;;;;;;10.52;4.45;;;;;;;;;;9499134;30;20467;-66
2023/05/31 19:56:12;;;;;;;7.93;5.47;;;;;;;;;;9503849;30;20143;-66
2023/05/31 20:01:07;;;;;;;8.38;4.75;;;;;;;;;;9500154;30;20061;-66
2023/05/31 20:06:03;;;;;;;7.75;4.60;;;;;;;;;;9500029;30;20056;-66
2023/05/31 20:11:00;;;;;;;6.82;5.78;;;;;;;;;;9481143;30;20114;-65
2023/05/31 20:15:54;;;;;;;17.55;5.95;;;;;;;;;;9496878;30;20127;-64
2023/05/31 20:20:50;;;;;;;10.85;5.40;;;;;;;;;;9493227;30;20508;-67
2023/05/31 20:25:44;;;;;;;15.27;6.60;;;;;;;;;;9497772;30;20389;-66
2023/05/31 20:30:38;;;;;;;10.75;6.38;;;;;;;;;;9499144;30;20056;-62
2023/05/31 20:35:32;;;;;;;21.17;6.07;;;;;;;;;;9491293;30;20113;-62
2023/05/31 20:40:26;;;;;;;15.55;7.68;;;;;;;;;;9492273;30;20048;-62
2023/05/31 20:45:19;;;;;;;16.63;8.80;;;;;;;;;;9496077;30;20509;-62
2023/05/31 20:50:14;;;;;;;21.77;9.07;;;;;;;;;;9497179;30;20080;-61
2023/05/31 20:55:08;;;;;;;12.30;8.75;;;;;;;;;;9496462;30;20139;-60
2023/05/31 21:00:01;;;;;;;17.27;8.73;;;;;;;;;;9496432;30;20052;-61
2023/05/31 21:04:55;;;;;;;16.17;7.60;;;;;;;;;;9516062;30;20147;-60
2023/05/31 21:09:52;;;;;;;15.80;7.80;;;;;;;;;;9505029;30;20060;-60
2023/05/31 21:14:45;;;;;;;13.52;7.65;;;;;;;;;;9504277;29;20065;-61
2023/05/31 21:19:38;;;;;;;13.10;8.13;;;;;;;;;;9504588;30;20079;-61
2023/05/31 21:24:31;;;;;;;20.10;7.80;;;;;;;;;;9499821;30;20561;-60
2023/05/31 21:29:25;;;;;;;15.45;8.38;;;;;;;;;;9498552;30;20167;-60
2023/05/31 21:34:20;;;;;;;16.00;7.22;;;;;;;;;;9498169;30;20064;-60
2023/05/31 21:39:14;;;;;;;9.73;7.30;;;;;;;;;;9498778;30;20589;-61
2023/05/31 21:44:07;;;;;;;10.23;6.35;;;;;;;;;;9503152;30;20062;-60
2023/05/31 21:49:00;;;;;;;8.82;6.85;;;;;;;;;;9497044;30;20139;-61
2023/05/31 21:53:53;;;;;;;14.77;7.18;;;;;;;;;;9489951;30;20061;-60
2023/05/31 21:58:46;;;;;;;8.70;7.00;;;;;;;;;;9511354;30;20147;-59
2023/05/31 22:03:39;;;;;;;10.18;7.15;;;;;;;;;;9504440;30;20068;-60
2023/05/31 22:08:33;;;;;;;8.27;7.40;;;;;;;;;;9502661;30;20062;-60
2023/05/31 22:13:29;;;;;;;10.07;7.07;;;;;;;;;;9501154;30;20064;-61
2023/05/31 22:18:22;;;;;;;10.20;7.05;;;;;;;;;;9502748;30;20059;-61
2023/05/31 22:23:17;;;;;;;10.23;7.35;;;;;;;;;;9502374;30;20056;-60
2023/05/31 22:28:10;;;;;;;13.63;7.15;;;;;;;;;;9498943;30;20088;-60
2023/05/31 22:33:04;;;;;;;8.10;7.22;;;;;;;;;;9489734;30;20096;-60
2023/05/31 22:37:58;;;;;;;9.30;7.63;;;;;;;;;;9514504;30;20053;-60
2023/05/31 22:42:51;;;;;;;8.57;6.90;;;;;;;;;;9495432;30;20056;-61
2023/05/31 22:47:45;;;;;;;8.23;6.45;;;;;;;;;;9498249;30;20056;-61
2023/05/31 22:52:40;;;;;;;7.85;7.03;;;;;;;;;;9501673;30;20135;-61
2023/05/31 22:57:33;;;;;;;8.40;6.88;;;;;;;;;;9501572;30;20568;-62
2023/05/31 23:02:28;;;;;;;9.88;6.57;;;;;;;;;;9502093;30;20056;-61
2023/05/31 23:07:23;;;;;;;31.60;11.07;;;;;;;;;;9506525;30;20052;-61
2023/05/31 23:12:20;;;;;;;9.60;6.85;;;;;;;;;;9507328;30;20052;-61
2023/05/31 23:17:16;;;;;;;9.70;7.82;;;;;;;;;;9507991;30;20056;-61
2023/05/31 23:22:13;;;;;;;11.02;6.28;;;;;;;;;;9508699;30;20056;-61
2023/05/31 23:27:07;;;;;;;11.25;7.45;;;;;;;;;;9507095;30;20052;-61
2023/05/31 23:32:01;;;;;;;12.23;6.38;;;;;;;;;;9508183;30;20136;-61
2023/05/31 23:36:55;;;;;;;12.15;7.03;;;;;;;;;;9507876;30;20062;-62
2023/05/31 23:41:48;;;;;;;9.48;6.45;;;;;;;;;;9507808;30;20059;-62
2023/05/31 23:46:42;;;;;;;12.38;6.53;;;;;;;;;;9505136;30;20143;-61
2023/05/31 23:51:36;;;;;;;8.48;5.80;;;;;;;;;;9506740;30;20060;-62
2023/05/31 23:56:30;;;;;;;10.98;8.27;;;;;;;;;;9519320;30;20143;-62
